Time;durP1;ratioP1;P1;durP2;ratioP2;P2;SDS_P1;SDS_P2;PMS_P1;PMS_P2;Temp;Humidity;BMP_temperature;BMP_pressure;BME280_temperature;BME280_humidity;BME280_pressure;Samples;Min_cycle;Max_cycle;Signal;HPM_P1;HPM_P2
2022/07/06 00:01:06;;;;;;;16.60;15.30;;;;;;;18.52;100.00;92777.16;4984357;28;20226;-75
2022/07/06 00:03:31;;;;;;;15.20;14.03;;;;;;;18.46;100.00;92759.94;4984050;28;20199;-73
2022/07/06 00:05:56;;;;;;;16.17;14.83;;;;;;;18.62;100.00;92789.97;4986811;28;20225;-75
2022/07/06 00:08:22;;;;;;;14.50;13.20;;;;;;;18.31;100.00;92787.69;4985186;28;20261;-73
2022/07/06 00:10:47;;;;;;;15.50;14.00;;;;;;;18.30;100.00;92798.56;4985637;28;20250;-73
2022/07/06 00:13:12;;;;;;;15.03;13.63;;;;;;;18.52;100.00;92808.88;4988459;28;20205;-74
2022/07/06 00:15:38;;;;;;;14.37;13.03;;;;;;;18.34;100.00;92815.31;4985907;28;20253;-74
2022/07/06 00:18:03;;;;;;;16.20;14.47;;;;;;;18.42;100.00;92830.41;4983337;28;20198;-73
2022/07/06 00:20:29;;;;;;;14.30;13.10;;;;;;;18.54;100.00;92830.47;4985896;28;20200;-74
2022/07/06 00:22:54;;;;;;;15.93;14.43;;;;;;;18.36;100.00;92810.50;5005474;28;21071;-73
2022/07/06 00:25:19;;;;;;;17.70;16.10;;;;;;;18.61;100.00;92844.75;5003910;28;20244;-72
2022/07/06 00:27:45;;;;;;;17.43;15.87;;;;;;;18.57;100.00;92840.41;5003877;28;20228;-74
2022/07/06 00:30:10;;;;;;;18.90;17.20;;;;;;;18.58;100.00;92840.13;5003429;28;20278;-73
2022/07/06 00:32:36;;;;;;;20.23;18.43;;;;;;;18.68;100.00;92844.22;5004782;28;20346;-73
2022/07/06 00:35:01;;;;;;;19.10;17.37;;;;;;;18.82;100.00;92866.69;5003403;28;20202;-73
2022/07/06 00:37:26;;;;;;;20.10;18.23;;;;;;;18.85;100.00;92866.03;5003126;28;20224;-73
2022/07/06 00:39:52;;;;;;;20.47;18.67;;;;;;;18.85;100.00;92855.47;5001685;28;20200;-73
2022/07/06 00:42:17;;;;;;;20.97;19.00;;;;;;;18.97;100.00;92855.50;5002450;28;20244;-73
2022/07/06 00:44:43;;;;;;;20.47;18.50;;;;;;;19.08;100.00;92869.16;5006017;28;20328;-73
2022/07/06 00:47:08;;;;;;;20.07;18.27;;;;;;;19.08;100.00;92859.31;5000550;28;20312;-74
2022/07/06 00:52:38;;;;;;;19.23;17.47;;;;;;;19.10;100.00;92861.63;4933075;29;20239;-73
2022/07/06 00:55:04;;;;;;;18.80;17.07;;;;;;;19.12;100.00;92856.81;4933329;29;20226;-73
2022/07/06 00:57:29;;;;;;;19.00;17.20;;;;;;;19.02;100.00;92859.84;4954448;28;20238;-73
2022/07/06 00:59:55;;;;;;;17.43;15.60;;;;;;;19.21;100.00;92851.44;4984569;28;20229;-73
2022/07/06 01:02:22;;;;;;;17.50;15.83;;;;;;;19.12;100.00;92839.06;4981253;28;20219;-73
2022/07/06 01:04:48;;;;;;;17.27;15.60;;;;;;;18.95;100.00;92827.84;4986086;28;20222;-72
2022/07/06 01:07:13;;;;;;;15.73;14.23;;;;;;;18.83;100.00;92811.91;4984318;28;20326;-74
2022/07/06 01:09:39;;;;;;;15.43;14.10;;;;;;;18.58;100.00;92800.44;4986256;28;20185;-73
2022/07/06 01:12:05;;;;;;;15.57;14.27;;;;;;;18.76;100.00;92801.84;4981474;28;20229;-73
2022/07/06 01:14:31;;;;;;;15.47;14.07;;;;;;;18.80;100.00;92813.31;4983303;28;20204;-73
2022/07/06 01:16:57;;;;;;;15.53;13.93;;;;;;;18.71;100.00;92817.91;4981919;28;20222;-73
2022/07/06 01:19:23;;;;;;;17.27;15.23;;;;;;;18.58;100.00;92794.38;4984968;28;20226;-72
2022/07/06 01:21:48;;;;;;;15.97;14.50;;;;;;;18.56;100.00;92785.97;4981189;28;20293;-73
2022/07/06 01:24:14;;;;;;;16.40;15.03;;;;;;;18.57;100.00;92787.50;4985532;28;20187;-73
2022/07/06 01:26:39;;;;;;;15.73;14.00;;;;;;;18.21;100.00;92780.09;4984096;28;20233;-73
2022/07/06 01:29:05;;;;;;;15.03;12.93;;;;;;;18.33;100.00;92808.50;4982503;28;20187;-73
2022/07/06 01:31:30;;;;;;;15.63;14.13;;;;;;;18.17;100.00;92767.88;4981209;28;20244;-72
2022/07/06 01:33:57;;;;;;;15.47;14.03;;;;;;;18.44;100.00;92818.44;4984687;28;20186;-73
2022/07/06 01:36:23;;;;;;;15.67;14.13;;;;;;;18.31;100.00;92792.97;4998002;28;20229;-73
2022/07/06 01:38:50;;;;;;;16.57;15.07;;;;;;;18.22;100.00;92809.97;4986270;28;21078;-74
2022/07/06 01:41:16;;;;;;;15.83;14.53;;;;;;;18.21;100.00;92814.47;4982769;28;20228;-73
2022/07/06 01:43:42;;;;;;;15.73;13.43;;;;;;;18.08;100.00;92804.91;5001227;28;20262;-73
2022/07/06 01:46:07;;;;;;;15.80;13.90;;;;;;;18.10;100.00;92815.16;4981379;28;20258;-74
2022/07/06 01:48:33;;;;;;;17.10;15.30;;;;;;;18.23;100.00;92814.16;4985335;28;20188;-73
2022/07/06 01:50:58;;;;;;;13.83;12.67;;;;;;;18.24;100.00;92805.16;4984654;28;20233;-73
2022/07/06 01:53:24;;;;;;;14.43;13.23;;;;;;;18.09;100.00;92817.03;4984626;28;20204;-73
2022/07/06 01:55:49;;;;;;;14.53;13.33;;;;;;;18.07;100.00;92808.63;4982374;28;20247;-73
2022/07/06 01:58:15;;;;;;;15.43;14.23;;;;;;;18.11;100.00;92811.44;4984454;28;20236;-73
2022/07/06 02:00:40;;;;;;;15.27;13.80;;;;;;;18.17;100.00;92818.06;4982243;28;20212;-74
2022/07/06 02:03:06;;;;;;;14.27;13.00;;;;;;;18.29;100.00;92831.41;4983718;28;20194;-73
2022/07/06 02:05:31;;;;;;;15.43;14.10;;;;;;;18.09;100.00;92822.31;4982467;28;20218;-73
2022/07/06 02:07:57;;;;;;;15.50;13.90;;;;;;;18.20;100.00;92830.66;4982672;28;20241;-72
2022/07/06 02:10:22;;;;;;;15.30;13.90;;;;;;;17.89;100.00;92816.97;4980240;28;20250;-74
2022/07/06 02:12:47;;;;;;;17.10;15.30;;;;;;;18.09;100.00;92837.38;4985174;28;20192;-73
2022/07/06 02:15:13;;;;;;;16.73;15.10;;;;;;;17.74;100.00;92778.69;4984177;28;20196;-73
2022/07/06 02:17:38;;;;;;;15.90;14.43;;;;;;;18.08;100.00;92828.69;4985152;28;20224;-72
2022/07/06 02:20:05;;;;;;;15.97;14.30;;;;;;;17.86;100.00;92813.09;4982674;28;20184;-73
2022/07/06 02:22:31;;;;;;;18.87;14.50;;;;;;;17.94;100.00;92820.22;4985648;28;20331;-72
2022/07/06 02:24:56;;;;;;;15.10;13.80;;;;;;;18.05;100.00;92828.56;4983404;28;20191;-72
2022/07/06 02:27:21;;;;;;;16.00;14.47;;;;;;;17.83;100.00;92823.53;4980494;28;20264;-73
2022/07/06 02:29:47;;;;;;;15.83;14.20;;;;;;;17.63;100.00;92803.09;4982752;28;20646;-72
2022/07/06 02:32:12;;;;;;;15.83;14.33;;;;;;;17.87;100.00;92825.22;4997753;28;20223;-73
2022/07/06 02:34:38;;;;;;;17.23;15.47;;;;;;;17.71;100.00;92799.66;5003382;28;20199;-73
2022/07/06 02:37:03;;;;;;;15.90;14.33;;;;;;;17.82;100.00;92812.16;4986974;28;20236;-73
2022/07/06 02:39:29;;;;;;;14.07;12.77;;;;;;;17.83;100.00;92818.25;4980949;28;20244;-72
2022/07/06 02:41:54;;;;;;;16.33;14.70;;;;;;;17.75;100.00;92819.03;4994463;28;21051;-71
2022/07/06 02:44:19;;;;;;;15.77;14.27;;;;;;;17.43;100.00;92800.00;5000961;28;20215;-72
2022/07/06 02:46:45;;;;;;;15.70;14.23;;;;;;;17.16;100.00;92792.50;5001932;28;20228;-73
2022/07/06 02:49:10;;;;;;;18.40;14.57;;;;;;;17.47;100.00;92794.91;4999702;28;20192;-72
2022/07/06 02:51:36;;;;;;;15.07;13.73;;;;;;;17.62;100.00;92801.56;5003870;28;20227;-72
2022/07/06 02:54:01;;;;;;;20.13;13.53;;;;;;;17.46;100.00;92782.81;5002361;28;20204;-73
2022/07/06 02:56:27;;;;;;;16.13;14.47;;;;;;;17.58;100.00;92817.25;5001991;28;20239;-73
2022/07/06 02:58:53;;;;;;;15.47;13.87;;;;;;;17.50;100.00;92813.56;5000050;28;20268;-73
2022/07/06 03:01:18;;;;;;;15.70;14.23;;;;;;;17.72;100.00;92819.69;5001638;28;20719;-74
2022/07/06 03:03:44;;;;;;;14.80;13.50;;;;;;;17.63;100.00;92809.16;5000818;28;20192;-73
2022/07/06 03:06:09;;;;;;;16.00;14.53;;;;;;;17.28;100.00;92812.94;5001738;28;20219;-73
2022/07/06 03:08:35;;;;;;;15.83;14.53;;;;;;;17.55;100.00;92817.88;4998760;28;20378;-73
2022/07/06 03:11:00;;;;;;;14.27;12.93;;;;;;;17.39;100.00;92798.31;4999188;28;20216;-73
2022/07/06 03:13:27;;;;;;;14.87;13.37;;;;;;;17.69;100.00;92817.66;4998627;28;20255;-73
2022/07/06 03:15:53;;;;;;;13.60;12.43;;;;;;;17.59;100.00;92809.00;5001378;28;20208;-73
2022/07/06 03:18:18;;;;;;;15.23;13.67;;;;;;;17.35;100.00;92816.66;4999570;28;20198;-75
2022/07/06 03:20:43;;;;;;;15.80;14.40;;;;;;;17.41;100.00;92786.38;5001330;28;20211;-73
2022/07/06 03:23:09;;;;;;;13.23;12.23;;;;;;;17.65;100.00;92817.53;5001556;28;20196;-73
2022/07/06 03:25:34;;;;;;;14.50;13.07;;;;;;;17.73;100.00;92829.91;4998392;28;20191;-73
2022/07/06 03:27:59;;;;;;;14.23;13.10;;;;;;;17.61;100.00;92827.19;5001954;28;20238;-73
2022/07/06 03:30:25;;;;;;;13.17;12.20;;;;;;;17.74;100.00;92828.84;5000476;28;20210;-73
2022/07/06 03:32:50;;;;;;;13.47;12.03;;;;;;;17.75;100.00;92842.81;4998210;28;20200;-75
2022/07/06 03:35:16;;;;;;;12.30;11.20;;;;;;;17.89;100.00;92838.09;5000866;28;20195;-73
2022/07/06 03:37:41;;;;;;;12.47;11.50;;;;;;;17.98;100.00;92830.94;4999470;28;20239;-73
2022/07/06 03:40:07;;;;;;;13.67;12.17;;;;;;;17.92;100.00;92832.97;5002267;28;20197;-73
2022/07/06 03:42:33;;;;;;;11.90;10.87;;;;;;;18.10;100.00;92852.91;5000617;28;20220;-73
2022/07/06 03:44:58;;;;;;;12.50;11.33;;;;;;;18.17;100.00;92850.56;5001918;28;20185;-73
2022/07/06 03:47:23;;;;;;;12.20;11.23;;;;;;;18.10;100.00;92833.66;5003165;28;20238;-73
2022/07/06 03:49:49;;;;;;;12.60;11.50;;;;;;;18.15;97.58;92852.75;5005611;28;20228;-74
2022/07/06 03:52:14;;;;;;;11.63;10.57;;;;;;;18.06;98.93;92827.44;5004828;28;20231;-74
2022/07/06 03:54:40;;;;;;;12.13;11.30;;;;;;;18.24;98.82;92861.41;5006159;28;20226;-73
2022/07/06 03:57:05;;;;;;;12.97;11.90;;;;;;;18.31;98.31;92855.63;5004014;28;20232;-73
2022/07/06 03:59:30;;;;;;;12.87;11.87;;;;;;;19.08;95.02;92861.97;5003873;28;20261;-74
2022/07/06 04:01:56;;;;;;;12.40;11.30;;;;;;;19.62;89.87;92862.75;5003847;28;20216;-73
2022/07/06 04:04:21;;;;;;;11.03;10.13;;;;;;;19.87;85.64;92840.50;5000901;28;20197;-73
2022/07/06 04:06:46;;;;;;;11.37;10.57;;;;;;;20.26;84.92;92831.97;5001225;28;20241;-73
2022/07/06 04:09:12;;;;;;;11.97;11.07;;;;;;;19.56;88.64;92823.56;5003990;28;20197;-71
2022/07/06 04:11:37;;;;;;;11.50;10.70;;;;;;;19.33;87.71;92854.94;5002113;28;20229;-72
2022/07/06 04:14:03;;;;;;;11.63;10.73;;;;;;;19.87;88.12;92858.28;5002432;28;20201;-74
2022/07/06 04:16:28;;;;;;;12.07;11.10;;;;;;;19.35;87.77;92839.50;5003064;28;20239;-73
2022/07/06 04:18:53;;;;;;;11.87;10.97;;;;;;;19.66;88.08;92852.28;4987160;28;20336;-72
2022/07/06 04:21:19;;;;;;;11.37;10.40;;;;;;;19.68;88.01;92877.34;5004797;28;20225;-75
2022/07/06 04:23:44;;;;;;;11.87;10.77;;;;;;;19.52;88.27;92868.47;5002568;28;20223;-72
2022/07/06 04:26:10;;;;;;;12.33;11.30;;;;;;;19.53;88.88;92870.03;5001989;28;20315;-73
2022/07/06 04:28:35;;;;;;;12.57;11.37;;;;;;;20.08;85.86;92869.56;5003441;28;20195;-72
2022/07/06 04:31:00;;;;;;;11.80;10.90;;;;;;;20.13;85.55;92867.50;5007277;28;20288;-72
2022/07/06 04:33:26;;;;;;;16.00;10.63;;;;;;;20.14;87.41;92863.75;5007364;28;20225;-72
2022/07/06 04:35:51;;;;;;;10.87;9.87;;;;;;;20.54;84.81;92875.28;5006895;28;20229;-70
2022/07/06 04:38:17;;;;;;;11.67;10.87;;;;;;;21.35;79.82;92875.00;5007016;28;20196;-72
2022/07/06 04:40:42;;;;;;;11.63;10.50;;;;;;;21.90;77.42;92877.63;5005789;28;20238;-72
2022/07/06 04:43:08;;;;;;;11.87;10.87;;;;;;;21.31;77.36;92884.00;5006214;28;20194;-74
2022/07/06 04:45:33;;;;;;;11.38;10.40;;;;;;;20.78;80.70;92889.63;5005969;28;20217;-76
2022/07/06 04:47:58;;;;;;;11.73;10.70;;;;;;;20.51;82.19;92891.81;5007964;28;21137;-74
2022/07/06 04:50:24;;;;;;;11.17;10.37;;;;;;;20.33;82.07;92874.59;5000883;28;20198;-74
2022/07/06 04:52:49;;;;;;;11.50;10.63;;;;;;;20.19;83.97;92908.59;5004359;28;20190;-71
2022/07/06 04:55:14;;;;;;;14.57;13.45;;;;;;;19.86;86.23;92915.03;5003484;28;20199;-73
2022/07/06 04:57:40;;;;;;;12.40;11.30;;;;;;;19.50;88.09;92917.56;5002663;28;20227;-70
2022/07/06 05:00:07;;;;;;;10.30;9.50;;;;;;;19.20;89.50;92911.56;5005688;28;20213;-73
2022/07/06 05:02:32;;;;;;;11.80;10.80;;;;;;;19.08;90.77;92919.44;5002021;28;20229;-71
2022/07/06 05:04:58;;;;;;;12.33;11.33;;;;;;;18.74;93.42;92922.31;5004856;28;20262;-74
2022/07/06 05:07:28;;;;;;;12.87;11.57;;;;;;;18.54;93.60;92915.09;5004692;28;20244;-74
2022/07/06 05:09:53;;;;;;;13.00;11.80;;;;;;;18.75;92.90;92926.50;5002135;28;20191;-71
2022/07/06 05:12:19;;;;;;;14.20;12.67;;;;;;;18.97;91.55;92916.38;5001734;28;20230;-73
2022/07/06 05:14:44;;;;;;;13.77;12.37;;;;;;;19.19;89.15;92923.25;5005106;28;20177;-70
2022/07/06 05:17:09;;;;;;;12.93;11.73;;;;;;;19.25;88.40;92935.19;5005591;28;20235;-74
2022/07/06 05:19:35;;;;;;;12.60;11.40;;;;;;;19.77;86.80;92938.19;5003936;28;20200;-72
2022/07/06 05:22:00;;;;;;;17.90;11.80;;;;;;;20.33;84.13;92943.53;5001968;28;20241;-74
2022/07/06 05:24:26;;;;;;;14.13;11.30;;;;;;;20.27;81.65;92936.91;5001184;28;20188;-69
2022/07/06 05:26:51;;;;;;;12.73;11.60;;;;;;;21.22;78.00;92939.88;5003049;28;20242;-71
2022/07/06 05:29:16;;;;;;;12.57;11.37;;;;;;;21.98;75.17;92929.09;5004053;28;20205;-76
2022/07/06 05:31:42;;;;;;;12.20;10.93;;;;;;;23.03;70.80;92958.38;4993532;28;20287;-72
2022/07/06 05:34:07;;;;;;;11.77;10.73;;;;;;;23.18;68.71;92952.22;4987679;28;20684;-72
2022/07/06 05:36:33;;;;;;;13.40;12.18;;;;;;;22.82;69.64;92951.78;5003031;28;20242;-73
2022/07/06 05:38:58;;;;;;;14.38;13.05;;;;;;;22.60;67.70;92950.47;5002184;28;20237;-73
2022/07/06 05:41:24;;;;;;;11.57;10.50;;;;;;;25.21;61.17;92968.63;4998135;28;20229;-73
2022/07/06 05:43:49;;;;;;;11.75;10.85;;;;;;;25.18;56.31;92969.34;5003962;28;20203;-73
2022/07/06 05:46:15;;;;;;;11.55;10.48;;;;;;;27.23;51.05;92943.72;5001337;28;20238;-74
2022/07/06 05:51:24;;;;;;;10.25;9.35;;;;;;;30.55;44.09;92992.13;5002858;28;20242;-72
2022/07/06 05:53:50;;;;;;;11.05;10.15;;;;;;;28.21;48.36;92973.03;5003818;28;20195;-73
2022/07/06 05:56:15;;;;;;;12.13;11.07;;;;;;;28.13;49.43;92987.56;5000824;28;20218;-73
2022/07/06 05:58:40;;;;;;;13.18;11.88;;;;;;;27.42;50.78;92975.69;5003691;28;20485;-73
2022/07/06 06:01:09;;;;;;;13.07;11.98;;;;;;;28.07;48.17;92962.22;5001280;28;20235;-73
2022/07/06 06:03:35;;;;;;;13.77;12.57;;;;;;;27.00;49.67;92963.84;5002795;28;20188;-73
2022/07/06 06:06:01;;;;;;;12.23;11.00;;;;;;;26.23;51.64;92980.72;4999440;28;20232;-73
2022/07/06 06:08:26;;;;;;;12.88;11.77;;;;;;;23.99;60.94;92950.50;5000328;28;20219;-72
2022/07/06 06:10:52;;;;;;;12.55;11.48;;;;;;;23.16;63.08;92959.78;5003164;28;20290;-73
2022/07/06 06:13:18;;;;;;;11.60;10.70;;;;;;;22.59;66.00;92967.56;5003284;28;20202;-73
2022/07/06 06:15:43;;;;;;;12.15;11.25;;;;;;;23.14;64.97;92963.91;5000839;28;20231;-72
2022/07/06 06:18:09;;;;;;;10.80;10.07;;;;;;;23.79;60.32;92968.38;5003121;28;20190;-73
2022/07/06 06:20:34;;;;;;;11.35;10.32;;;;;;;26.37;53.66;92969.38;5000441;28;20258;-72
2022/07/06 06:23:00;;;;;;;10.73;9.75;;;;;;;26.37;52.88;92964.78;5003017;28;20195;-73
2022/07/06 06:25:29;;;;;;;11.32;10.30;;;;;;;27.34;51.34;92962.59;5002806;28;20188;-73
2022/07/06 06:27:55;;;;;;;12.25;11.23;;;;;;;25.97;55.15;92954.00;5000562;28;20227;-72
2022/07/06 06:30:20;;;;;;;12.07;10.98;;;;;;;23.92;62.56;92958.34;5003103;28;20225;-73
2022/07/06 06:32:46;;;;;;;13.80;12.43;;;;;;;23.63;62.13;92955.13;5001464;28;20229;-73
2022/07/06 06:35:11;;;;;;;12.82;11.20;;;;;;;22.99;63.83;92964.72;4999122;28;20227;-74
2022/07/06 06:37:37;;;;;;;13.05;11.85;;;;;;;22.29;67.31;92950.44;5001882;28;20302;-72
2022/07/06 06:40:04;;;;;;;12.75;11.30;;;;;;;21.58;69.21;92950.41;4984297;28;20728;-73
2022/07/06 06:42:29;;;;;;;12.55;11.25;;;;;;;21.29;71.66;92928.69;5002842;28;20243;-74
2022/07/06 06:44:55;;;;;;;13.20;12.20;;;;;;;21.21;74.92;92948.19;4999560;28;20186;-73
2022/07/06 06:47:20;;;;;;;12.75;11.65;;;;;;;20.80;77.69;92940.47;5003657;28;20223;-74
2022/07/06 06:49:46;;;;;;;13.35;11.90;;;;;;;20.70;77.13;92955.72;5002629;28;20266;-73
2022/07/06 06:52:11;;;;;;;14.25;12.85;;;;;;;20.49;78.91;92935.72;5001445;28;20246;-73
2022/07/06 06:54:37;;;;;;;13.88;12.73;;;;;;;20.38;79.70;92958.47;5001002;28;20192;-72
2022/07/06 06:57:02;;;;;;;14.07;12.73;;;;;;;20.32;80.57;92935.91;5003342;28;20266;-73
2022/07/06 06:59:28;;;;;;;16.85;14.10;;;;;;;20.54;79.79;92957.50;5003239;28;20354;-73
2022/07/06 07:01:53;;;;;;;14.57;13.07;;;;;;;20.34;80.27;92907.19;5001093;28;20244;-75
2022/07/06 07:04:19;;;;;;;14.05;12.70;;;;;;;21.33;77.30;92961.44;5000554;28;20201;-72
2022/07/06 07:06:44;;;;;;;14.20;12.77;;;;;;;21.90;74.82;92943.31;4998513;28;20274;-72
2022/07/06 07:09:09;;;;;;;14.00;12.77;;;;;;;22.18;74.13;92957.38;4999834;28;20240;-72
2022/07/06 07:11:35;;;;;;;14.32;12.98;;;;;;;21.92;73.25;92954.41;5000866;28;20225;-73
2022/07/06 07:14:01;;;;;;;14.50;13.30;;;;;;;22.04;73.68;92957.00;5000498;28;20193;-73
2022/07/06 07:16:26;;;;;;;15.20;12.52;;;;;;;21.44;73.36;92934.06;5001302;28;20940;-73
2022/07/06 07:18:52;;;;;;;14.80;13.27;;;;;;;21.70;73.74;92960.22;5004320;28;20268;-73
2022/07/06 07:21:17;;;;;;;15.13;13.65;;;;;;;21.35;74.25;92959.22;5001457;28;20230;-75
2022/07/06 07:23:43;;;;;;;15.00;13.55;;;;;;;21.23;75.42;92951.28;5000169;28;20186;-73
2022/07/06 07:26:08;;;;;;;17.73;14.25;;;;;;;21.50;76.01;92961.94;5001108;28;20230;-73
2022/07/06 07:28:34;;;;;;;17.15;13.65;;;;;;;21.00;76.98;92947.53;5002671;28;20241;-74
2022/07/06 07:30:59;;;;;;;15.85;14.35;;;;;;;20.77;77.40;92960.47;4999437;28;20299;-72
2022/07/06 07:33:25;;;;;;;16.75;15.18;;;;;;;20.78;78.77;92948.00;5002129;28;20184;-73
2022/07/06 07:35:50;;;;;;;15.73;14.30;;;;;;;21.25;76.80;92965.00;4983289;28;20233;-73
2022/07/06 07:38:15;;;;;;;15.90;14.40;;;;;;;20.75;76.51;92959.28;4983310;28;20192;-73
2022/07/06 07:40:41;;;;;;;15.68;14.18;;;;;;;21.26;75.80;92954.03;5000899;28;21579;-73
2022/07/06 07:43:06;;;;;;;16.38;14.68;;;;;;;21.27;75.47;92952.94;5001761;28;20191;-73
2022/07/06 07:45:32;;;;;;;19.83;15.70;;;;;;;21.60;73.90;92964.16;4999894;28;20266;-75
2022/07/06 07:47:57;;;;;;;16.08;14.57;;;;;;;21.46;74.97;92961.09;5002700;28;20213;-73
2022/07/06 07:50:23;;;;;;;20.83;15.10;;;;;;;21.69;73.27;92954.16;4999997;28;20223;-74
2022/07/06 07:52:48;;;;;;;21.25;15.15;;;;;;;21.81;72.30;92953.34;5003064;28;20185;-73
2022/07/06 07:55:14;;;;;;;17.02;15.43;;;;;;;21.89;71.63;92947.09;5002772;28;20194;-74
2022/07/06 07:57:39;;;;;;;16.70;14.55;;;;;;;21.93;72.43;92948.00;5001753;28;20310;-74
2022/07/06 08:00:05;;;;;;;15.77;14.18;;;;;;;21.68;73.66;92952.59;5000182;28;20189;-73
2022/07/06 08:02:31;;;;;;;17.15;15.23;;;;;;;21.84;73.28;92950.00;4999531;28;20233;-73
2022/07/06 08:04:56;;;;;;;16.45;14.82;;;;;;;21.78;71.18;92928.22;5003966;28;20180;-74
2022/07/06 08:07:22;;;;;;;22.15;14.75;;;;;;;21.98;72.09;92923.78;5004300;28;20241;-73
2022/07/06 08:09:47;;;;;;;17.60;15.43;;;;;;;22.56;72.23;92946.97;5003822;28;20197;-73
2022/07/06 08:12:13;;;;;;;16.20;14.70;;;;;;;22.09;71.57;92952.22;5002782;28;20320;-71
2022/07/06 08:14:38;;;;;;;18.90;15.77;;;;;;;22.07;74.21;92945.72;5004285;28;20180;-72
2022/07/06 08:17:04;;;;;;;16.75;15.20;;;;;;;22.16;72.46;92943.66;5002547;28;20226;-73
2022/07/06 08:19:30;;;;;;;18.85;14.98;;;;;;;22.27;72.10;92951.91;5003250;28;20230;-72
2022/07/06 08:21:56;;;;;;;15.98;14.45;;;;;;;22.27;70.51;92950.78;5005111;28;20305;-73
2022/07/06 08:24:22;;;;;;;15.68;14.05;;;;;;;22.19;73.00;92948.28;5003383;28;20190;-74
2022/07/06 08:26:47;;;;;;;15.07;13.77;;;;;;;22.46;71.35;92949.34;5002734;28;20241;-73
2022/07/06 08:29:13;;;;;;;15.02;13.65;;;;;;;22.02;72.11;92954.69;5005496;28;20182;-74
2022/07/06 08:31:38;;;;;;;15.32;13.95;;;;;;;22.17;71.90;92953.94;5004067;28;20226;-72
2022/07/06 08:34:04;;;;;;;17.38;13.18;;;;;;;22.15;70.69;92950.84;5005398;28;20177;-75
2022/07/06 08:36:29;;;;;;;15.43;13.73;;;;;;;22.15;73.72;92947.41;5002739;28;20706;-74
2022/07/06 08:38:55;;;;;;;20.77;13.82;;;;;;;22.34;71.92;92952.84;5005603;28;20177;-73
2022/07/06 08:41:22;;;;;;;14.25;12.95;;;;;;;22.18;69.84;92949.38;5002039;28;20255;-73
2022/07/06 08:43:50;;;;;;;15.18;13.32;;;;;;;22.86;68.02;92948.06;5003214;28;20193;-73
2022/07/06 08:46:15;;;;;;;13.73;12.48;;;;;;;22.85;66.52;92938.53;5004367;28;20245;-74
2022/07/06 08:48:41;;;;;;;14.65;12.90;;;;;;;22.56;67.57;92922.22;5005132;28;20214;-73
2022/07/06 08:51:07;;;;;;;14.90;13.07;;;;;;;22.56;67.53;92954.16;5003839;28;20235;-75
2022/07/06 08:53:33;;;;;;;15.55;13.73;;;;;;;22.74;68.12;92926.09;5003884;28;20197;-73
2022/07/06 08:56:01;;;;;;;15.10;13.55;;;;;;;23.10;67.31;92957.72;5004266;28;20259;-73
2022/07/06 08:58:27;;;;;;;14.82;13.38;;;;;;;23.36;65.86;92966.72;5006624;28;20185;-75
2022/07/06 09:00:57;;;;;;;15.48;13.63;;;;;;;23.14;67.58;92953.25;5004719;28;20234;-73
2022/07/06 09:03:23;;;;;;;15.57;14.07;;;;;;;23.78;65.34;92943.59;5002974;28;20195;-74
2022/07/06 09:05:51;;;;;;;15.45;13.90;;;;;;;23.86;65.14;92952.50;5004532;28;20238;-73
2022/07/06 09:08:18;;;;;;;14.93;13.40;;;;;;;23.46;66.28;92957.41;5005535;28;20249;-73
2022/07/06 09:10:44;;;;;;;15.60;14.20;;;;;;;23.54;66.41;92951.09;5005669;28;20252;-73
2022/07/06 09:13:09;;;;;;;15.90;13.50;;;;;;;23.88;65.07;92955.59;5001929;28;20651;-73
2022/07/06 09:15:38;;;;;;;15.43;13.57;;;;;;;23.64;64.25;92946.00;5002694;28;20222;-74
2022/07/06 09:18:05;;;;;;;15.63;14.23;;;;;;;23.86;64.30;92947.16;5003571;28;20182;-72
2022/07/06 09:20:31;;;;;;;14.05;12.98;;;;;;;23.76;62.05;92929.09;5003689;28;20194;-74
2022/07/06 09:23:02;;;;;;;14.50;13.20;;;;;;;23.87;64.40;92954.06;5002201;28;20191;-74
2022/07/06 09:25:29;;;;;;;14.02;12.65;;;;;;;24.19;60.64;92954.72;5001351;28;20221;-72
2022/07/06 09:27:57;;;;;;;12.90;11.77;;;;;;;24.36;60.66;92949.66;5004098;28;20214;-74
2022/07/06 09:30:24;;;;;;;12.75;11.73;;;;;;;24.04;61.64;92952.88;5003346;28;20194;-76
2022/07/06 09:32:52;;;;;;;14.80;13.35;;;;;;;23.92;63.59;92950.34;5002906;28;20233;-73
2022/07/06 09:35:31;;;;;;;13.95;12.63;;;;;;;23.40;64.38;92951.59;5002066;28;20208;-75
2022/07/06 09:38:11;;;;;;;13.30;12.10;;;;;;;23.94;64.19;92948.09;5002868;28;20233;-73
2022/07/06 09:40:42;;;;;;;14.43;13.13;;;;;;;23.95;62.33;92944.31;5000669;28;20200;-73
2022/07/06 09:43:09;;;;;;;14.02;12.63;;;;;;;23.98;62.30;92954.31;5001419;28;20173;-73
2022/07/06 09:45:35;;;;;;;13.82;12.52;;;;;;;24.20;63.07;92932.22;5000341;28;20852;-75
2022/07/06 09:48:12;;;;;;;14.20;12.90;;;;;;;24.16;62.59;92950.06;4985293;28;20215;-74
2022/07/06 09:50:46;;;;;;;15.40;13.75;;;;;;;23.72;64.08;92936.25;4985627;28;20184;-73
2022/07/06 09:53:13;;;;;;;13.82;12.48;;;;;;;24.07;64.54;92947.63;5004158;28;20216;-73
2022/07/06 09:55:42;;;;;;;14.13;12.82;;;;;;;23.44;64.64;92936.44;5003253;28;20191;-75
2022/07/06 09:58:08;;;;;;;13.82;12.63;;;;;;;24.05;63.28;92906.44;5003901;28;20202;-74
2022/07/06 10:00:34;;;;;;;15.25;13.85;;;;;;;23.83;65.49;92920.47;5001798;28;20213;-73
2022/07/06 10:03:01;;;;;;;15.05;13.40;;;;;;;23.77;65.06;92921.88;5002903;28;20199;-74
2022/07/06 10:05:29;;;;;;;16.98;15.23;;;;;;;23.94;65.15;92938.19;5002355;28;20178;-74
2022/07/06 10:07:57;;;;;;;15.63;14.18;;;;;;;23.94;63.87;92943.53;5001633;28;20260;-73
2022/07/06 10:10:25;;;;;;;16.92;15.15;;;;;;;23.63;64.84;92938.34;5000964;28;20197;-77
2022/07/06 10:12:53;;;;;;;16.95;15.10;;;;;;;23.88;65.49;92944.19;5003739;28;20201;-73
2022/07/06 10:15:22;;;;;;;16.55;14.95;;;;;;;23.97;64.21;92937.50;5003552;28;20208;-73
2022/07/06 10:17:49;;;;;;;16.73;15.20;;;;;;;23.82;66.20;92918.91;5003950;28;20197;-73
2022/07/06 10:20:15;;;;;;;16.65;15.15;;;;;;;23.85;64.04;92920.84;5001757;28;20174;-73
2022/07/06 10:22:41;;;;;;;15.60;13.98;;;;;;;23.57;63.41;92929.88;5003532;28;20231;-74
2022/07/06 10:25:06;;;;;;;16.52;15.00;;;;;;;23.37;64.59;92933.63;5001391;28;20189;-73
2022/07/06 10:27:34;;;;;;;17.67;15.98;;;;;;;22.88;66.67;92919.19;5000442;28;20238;-74
2022/07/06 10:30:00;;;;;;;16.00;14.40;;;;;;;22.71;65.83;92882.28;5001690;28;20194;-73
2022/07/06 10:32:27;;;;;;;16.50;15.07;;;;;;;23.29;66.14;92918.63;5003247;28;20259;-73
2022/07/06 10:34:53;;;;;;;17.05;15.15;;;;;;;23.50;64.35;92920.97;5002423;28;20237;-73
2022/07/06 10:37:27;;;;;;;17.40;15.70;;;;;;;23.32;65.97;92915.25;4999449;28;20225;-74
2022/07/06 10:42:51;;;;;;;18.45;16.50;;;;;;;23.56;67.39;92909.63;4999868;28;20222;-74
2022/07/06 10:45:46;;;;;;;17.23;15.43;;;;;;;23.75;66.40;92904.31;5001292;28;20192;-73
2022/07/06 10:48:11;;;;;;;20.35;18.10;;;;;;;24.08;66.62;92906.47;4996720;28;20241;-73
2022/07/06 10:50:37;;;;;;;16.23;14.63;;;;;;;23.96;66.16;92900.50;5003602;28;20200;-74
2022/07/06 10:53:10;;;;;;;17.65;15.85;;;;;;;23.67;64.79;92917.88;5002042;28;20214;-75
2022/07/06 10:55:40;;;;;;;16.73;15.13;;;;;;;23.52;66.67;92924.81;5002030;28;20213;-73
2022/07/06 10:58:06;;;;;;;16.58;15.02;;;;;;;23.92;65.45;92923.66;5002775;28;20194;-73
2022/07/06 11:00:51;;;;;;;16.38;14.88;;;;;;;23.59;65.13;92927.63;5000897;28;20225;-73
2022/07/06 11:04:10;;;;;;;17.70;14.85;;;;;;;23.65;64.17;92910.22;5003480;28;20182;-74
2022/07/06 11:06:37;;;;;;;15.57;13.98;;;;;;;23.83;64.24;92921.22;4988234;28;20231;-73
2022/07/06 11:09:07;;;;;;;17.08;15.38;;;;;;;24.15;64.19;92922.63;5000867;28;20234;-74
2022/07/06 11:11:32;;;;;;;15.60;14.07;;;;;;;24.08;63.98;92911.81;5001727;28;20234;-73
2022/07/06 11:14:14;;;;;;;16.17;14.77;;;;;;;24.04;63.98;92918.22;4999604;28;20187;-73
2022/07/06 11:16:39;;;;;;;17.40;15.65;;;;;;;23.89;63.26;92921.72;5000767;28;20231;-73
2022/07/06 11:19:08;;;;;;;15.40;14.00;;;;;;;24.06;62.11;92921.28;5000151;28;20199;-73